Startpagina
METAR-TAF:

METAR-TAF

Vliegvelden :

Aeroport de Reus

Reus, Spanje

breedte: 41-09N, lengte: 001-10E, hoogte: 71 m

Actueel weer

Dit bericht is 16 minuten geleden gemaakt, om 21:00 UTC
Wind 4 kt uit het noorden
Temperatuur 8°C
Vochtigheid 100%
Druk 1030 hPa
Zicht 10 km of meer
geen wolken onder 1500 m en geen cumulonimbus

METAR: LERS 232100Z 01004KT CAVOK 08/08 Q1030

Tijdstip: 22:16 (21:16 UTC)

Verwachting

Dit bericht is 1 uur en het 16 minuten geleden gemaakt, om 20:00 UTC
Verwachting geldig van 23 om 21 UTC tot 24 om 21 UTC
Wind 3 kt uit variabele richting
Zicht 10 km of meer
Weinig wolken op 1500 ft
Kans 30% :
Tijdelijke
van 24 om 00 UTC tot 24 om 07 UTC
Zicht: 4000 m
Gebroken wolken op 1000 ft
nevel
Wijzigt naar
van 24 om 11 UTC tot 24 om 13 UTC
Wind 10 kt uit het zuidwesten
Wijzigt naar
van 24 om 18 UTC tot 24 om 20 UTC
Wind 4 kt uit het noordnoordoosten

TAF: LERS 232000Z 2321/2421 VRB03KT 9999 FEW015 TX21/2413Z TN04/2406Z PROB30 TEMPO 2400/2407 4000 BR BKN010 BECMG 2411/2413 23010KT BECMG 2418/2420 02004KT

Waarnemingen en weersverwachtingen van meer dan 4000 vliegvelden (METAR en TAF).

De beschikbare stations zijn de gele en rode punten op de kaart.

Ga met uw muis naar het station om de naam te zien.

Klik dan om waarnemingen en weersverwachtingen te zien.

kaart wijzigen: klik op de groene knoppen met een zwart kruis om in te zoomen, op de groene knop met een streepje om uit te zoomen of op de groene pijlen voor aangrenzende kaarten.


METAR-TAF: